sensor_id;sensor_type;location;lat;lon;timestamp;P1;durP1;ratioP1;P2;durP2;ratioP2
41875;SDS011;27555;50.808;4.402;2023-10-08T00:01:14;6.43;;;2.80;;
41875;SDS011;27555;50.808;4.402;2023-10-08T00:03:44;9.65;;;2.00;;
41875;SDS011;27555;50.808;4.402;2023-10-08T00:06:14;7.03;;;2.42;;
41875;SDS011;27555;50.808;4.402;2023-10-08T00:08:41;3.85;;;1.83;;
41875;SDS011;27555;50.808;4.402;2023-10-08T00:11:06;11.60;;;2.70;;
41875;SDS011;27555;50.808;4.402;2023-10-08T00:13:35;6.80;;;1.90;;
41875;SDS011;27555;50.808;4.402;2023-10-08T00:16:08;6.13;;;2.38;;
41875;SDS011;27555;50.808;4.402;2023-10-08T00:18:35;4.55;;;2.13;;
41875;SDS011;27555;50.808;4.402;2023-10-08T00:21:03;5.88;;;2.45;;
41875;SDS011;27555;50.808;4.402;2023-10-08T00:23:37;6.40;;;2.17;;
41875;SDS011;27555;50.808;4.402;2023-10-08T00:26:17;7.85;;;2.03;;
41875;SDS011;27555;50.808;4.402;2023-10-08T00:28:55;4.55;;;2.00;;
41875;SDS011;27555;50.808;4.402;2023-10-08T00:31:25;6.88;;;2.25;;
41875;SDS011;27555;50.808;4.402;2023-10-08T00:33:59;7.60;;;2.00;;
41875;SDS011;27555;50.808;4.402;2023-10-08T00:36:25;5.50;;;2.28;;
41875;SDS011;27555;50.808;4.402;2023-10-08T00:38:50;9.35;;;2.65;;
41875;SDS011;27555;50.808;4.402;2023-10-08T00:41:18;21.77;;;3.40;;
41875;SDS011;27555;50.808;4.402;2023-10-08T00:43:46;8.43;;;2.17;;
41875;SDS011;27555;50.808;4.402;2023-10-08T00:46:13;12.45;;;2.75;;
41875;SDS011;27555;50.808;4.402;2023-10-08T00:48:48;6.53;;;2.75;;
41875;SDS011;27555;50.808;4.402;2023-10-08T00:51:20;5.38;;;2.20;;
41875;SDS011;27555;50.808;4.402;2023-10-08T00:53:55;7.45;;;1.98;;
41875;SDS011;27555;50.808;4.402;2023-10-08T00:56:30;5.43;;;2.03;;
41875;SDS011;27555;50.808;4.402;2023-10-08T00:59:33;6.47;;;2.05;;
41875;SDS011;27555;50.808;4.402;2023-10-08T01:02:15;6.72;;;2.13;;
41875;SDS011;27555;50.808;4.402;2023-10-08T01:04:45;10.25;;;2.53;;
41875;SDS011;27555;50.808;4.402;2023-10-08T01:07:12;5.35;;;2.45;;
41875;SDS011;27555;50.808;4.402;2023-10-08T01:09:43;7.72;;;2.55;;
41875;SDS011;27555;50.808;4.402;2023-10-08T01:12:15;7.28;;;2.65;;
41875;SDS011;27555;50.808;4.402;2023-10-08T01:14:57;12.90;;;3.35;;
41875;SDS011;27555;50.808;4.402;2023-10-08T01:17:30;4.13;;;2.08;;
41875;SDS011;27555;50.808;4.402;2023-10-08T01:19:57;7.03;;;2.75;;
41875;SDS011;27555;50.808;4.402;2023-10-08T01:22:43;9.93;;;2.40;;
41875;SDS011;27555;50.808;4.402;2023-10-08T01:25:09;6.55;;;2.60;;
41875;SDS011;27555;50.808;4.402;2023-10-08T01:27:35;7.10;;;2.42;;
41875;SDS011;27555;50.808;4.402;2023-10-08T01:30:02;8.00;;;2.28;;
41875;SDS011;27555;50.808;4.402;2023-10-08T01:32:40;7.65;;;2.55;;
41875;SDS011;27555;50.808;4.402;2023-10-08T01:35:06;7.55;;;2.63;;
41875;SDS011;27555;50.808;4.402;2023-10-08T01:37:47;10.00;;;2.85;;
41875;SDS011;27555;50.808;4.402;2023-10-08T01:40:13;10.90;;;3.35;;
41875;SDS011;27555;50.808;4.402;2023-10-08T01:42:39;8.07;;;2.75;;
41875;SDS011;27555;50.808;4.402;2023-10-08T01:45:04;7.30;;;2.83;;
41875;SDS011;27555;50.808;4.402;2023-10-08T01:47:34;7.82;;;2.60;;
41875;SDS011;27555;50.808;4.402;2023-10-08T01:50:00;5.90;;;2.22;;
41875;SDS011;27555;50.808;4.402;2023-10-08T01:52:30;10.70;;;2.20;;
41875;SDS011;27555;50.808;4.402;2023-10-08T01:54:56;5.93;;;2.33;;
41875;SDS011;27555;50.808;4.402;2023-10-08T01:57:23;9.88;;;2.30;;
41875;SDS011;27555;50.808;4.402;2023-10-08T01:59:48;6.68;;;2.70;;
41875;SDS011;27555;50.808;4.402;2023-10-08T02:02:14;5.60;;;2.30;;
41875;SDS011;27555;50.808;4.402;2023-10-08T02:04:40;4.18;;;2.25;;
41875;SDS011;27555;50.808;4.402;2023-10-08T02:07:06;4.72;;;2.05;;
41875;SDS011;27555;50.808;4.402;2023-10-08T02:09:40;9.70;;;2.53;;
41875;SDS011;27555;50.808;4.402;2023-10-08T02:12:06;5.35;;;2.08;;
41875;SDS011;27555;50.808;4.402;2023-10-08T02:14:33;7.07;;;2.17;;
41875;SDS011;27555;50.808;4.402;2023-10-08T02:17:00;9.23;;;2.83;;
41875;SDS011;27555;50.808;4.402;2023-10-08T02:19:31;6.40;;;2.38;;
41875;SDS011;27555;50.808;4.402;2023-10-08T02:22:01;4.25;;;2.03;;
41875;SDS011;27555;50.808;4.402;2023-10-08T02:24:30;8.77;;;2.38;;
41875;SDS011;27555;50.808;4.402;2023-10-08T02:26:57;6.78;;;2.47;;
41875;SDS011;27555;50.808;4.402;2023-10-08T02:29:28;7.03;;;2.67;;
41875;SDS011;27555;50.808;4.402;2023-10-08T02:31:56;4.28;;;2.35;;
41875;SDS011;27555;50.808;4.402;2023-10-08T02:34:22;9.30;;;2.72;;
41875;SDS011;27555;50.808;4.402;2023-10-08T02:36:48;7.03;;;2.25;;
41875;SDS011;27555;50.808;4.402;2023-10-08T02:39:13;8.50;;;2.25;;
41875;SDS011;27555;50.808;4.402;2023-10-08T02:41:47;5.15;;;2.30;;
41875;SDS011;27555;50.808;4.402;2023-10-08T02:44:14;4.22;;;2.55;;
41875;SDS011;27555;50.808;4.402;2023-10-08T02:46:45;9.25;;;2.85;;
41875;SDS011;27555;50.808;4.402;2023-10-08T02:49:15;8.00;;;2.60;;
41875;SDS011;27555;50.808;4.402;2023-10-08T02:51:46;4.80;;;2.38;;
41875;SDS011;27555;50.808;4.402;2023-10-08T02:54:15;13.77;;;2.33;;
41875;SDS011;27555;50.808;4.402;2023-10-08T02:56:46;6.22;;;2.13;;
41875;SDS011;27555;50.808;4.402;2023-10-08T02:59:16;4.78;;;2.33;;
41875;SDS011;27555;50.808;4.402;2023-10-08T03:01:48;6.50;;;2.35;;
41875;SDS011;27555;50.808;4.402;2023-10-08T03:04:15;7.60;;;2.80;;
41875;SDS011;27555;50.808;4.402;2023-10-08T03:06:44;6.82;;;2.28;;
41875;SDS011;27555;50.808;4.402;2023-10-08T03:09:14;6.32;;;2.55;;
41875;SDS011;27555;50.808;4.402;2023-10-08T03:11:50;6.20;;;2.15;;
41875;SDS011;27555;50.808;4.402;2023-10-08T03:14:18;8.30;;;2.35;;
41875;SDS011;27555;50.808;4.402;2023-10-08T03:16:54;6.00;;;2.22;;
41875;SDS011;27555;50.808;4.402;2023-10-08T03:19:32;5.32;;;2.45;;
41875;SDS011;27555;50.808;4.402;2023-10-08T03:21:58;7.55;;;2.13;;
41875;SDS011;27555;50.808;4.402;2023-10-08T03:24:29;9.63;;;2.90;;
41875;SDS011;27555;50.808;4.402;2023-10-08T03:26:58;5.68;;;2.40;;
41875;SDS011;27555;50.808;4.402;2023-10-08T03:29:56;6.65;;;2.67;;
41875;SDS011;27555;50.808;4.402;2023-10-08T03:32:23;6.00;;;2.50;;
41875;SDS011;27555;50.808;4.402;2023-10-08T03:34:51;8.40;;;2.50;;
41875;SDS011;27555;50.808;4.402;2023-10-08T03:37:20;6.38;;;2.65;;
41875;SDS011;27555;50.808;4.402;2023-10-08T03:39:54;7.25;;;2.25;;
41875;SDS011;27555;50.808;4.402;2023-10-08T03:42:32;9.32;;;2.70;;
41875;SDS011;27555;50.808;4.402;2023-10-08T03:45:05;6.47;;;2.83;;
41875;SDS011;27555;50.808;4.402;2023-10-08T03:47:36;6.13;;;2.53;;
41875;SDS011;27555;50.808;4.402;2023-10-08T03:50:06;8.90;;;2.20;;
41875;SDS011;27555;50.808;4.402;2023-10-08T03:52:34;7.63;;;2.30;;
41875;SDS011;27555;50.808;4.402;2023-10-08T03:55:06;7.70;;;2.70;;
41875;SDS011;27555;50.808;4.402;2023-10-08T03:57:43;8.02;;;2.63;;
41875;SDS011;27555;50.808;4.402;2023-10-08T04:00:13;10.20;;;2.78;;
41875;SDS011;27555;50.808;4.402;2023-10-08T04:02:46;5.97;;;2.53;;
41875;SDS011;27555;50.808;4.402;2023-10-08T04:05:25;7.20;;;2.50;;
41875;SDS011;27555;50.808;4.402;2023-10-08T04:08:08;7.65;;;2.78;;
41875;SDS011;27555;50.808;4.402;2023-10-08T04:11:04;10.23;;;2.75;;
41875;SDS011;27555;50.808;4.402;2023-10-08T04:13:33;7.10;;;2.70;;
41875;SDS011;27555;50.808;4.402;2023-10-08T04:16:00;7.35;;;2.45;;
41875;SDS011;27555;50.808;4.402;2023-10-08T04:18:29;3.72;;;2.15;;
41875;SDS011;27555;50.808;4.402;2023-10-08T04:20:55;7.38;;;2.70;;
41875;SDS011;27555;50.808;4.402;2023-10-08T04:23:30;10.88;;;2.70;;
41875;SDS011;27555;50.808;4.402;2023-10-08T04:25:56;7.30;;;2.53;;
41875;SDS011;27555;50.808;4.402;2023-10-08T04:28:22;5.25;;;2.45;;
41875;SDS011;27555;50.808;4.402;2023-10-08T04:30:53;7.10;;;2.33;;
41875;SDS011;27555;50.808;4.402;2023-10-08T04:33:25;6.20;;;2.53;;
41875;SDS011;27555;50.808;4.402;2023-10-08T04:35:55;14.93;;;4.18;;
41875;SDS011;27555;50.808;4.402;2023-10-08T04:38:24;8.10;;;2.55;;
41875;SDS011;27555;50.808;4.402;2023-10-08T04:40:51;8.07;;;2.65;;
41875;SDS011;27555;50.808;4.402;2023-10-08T04:43:18;6.43;;;2.60;;
41875;SDS011;27555;50.808;4.402;2023-10-08T04:45:52;6.68;;;2.33;;
41875;SDS011;27555;50.808;4.402;2023-10-08T04:48:19;5.55;;;2.58;;
41875;SDS011;27555;50.808;4.402;2023-10-08T04:50:48;8.20;;;3.97;;
41875;SDS011;27555;50.808;4.402;2023-10-08T04:53:25;7.07;;;2.47;;
41875;SDS011;27555;50.808;4.402;2023-10-08T04:56:01;6.00;;;2.30;;
41875;SDS011;27555;50.808;4.402;2023-10-08T04:58:34;6.82;;;2.38;;
41875;SDS011;27555;50.808;4.402;2023-10-08T05:01:05;8.77;;;2.83;;
41875;SDS011;27555;50.808;4.402;2023-10-08T05:03:49;3.75;;;2.33;;
41875;SDS011;27555;50.808;4.402;2023-10-08T05:06:32;6.53;;;2.63;;
41875;SDS011;27555;50.808;4.402;2023-10-08T05:11:48;5.40;;;2.53;;
41875;SDS011;27555;50.808;4.402;2023-10-08T05:19:28;8.05;;;2.63;;
41875;SDS011;27555;50.808;4.402;2023-10-08T05:22:10;5.97;;;2.55;;
41875;SDS011;27555;50.808;4.402;2023-10-08T05:24:55;8.93;;;3.03;;
41875;SDS011;27555;50.808;4.402;2023-10-08T05:27:41;5.53;;;2.67;;
41875;SDS011;27555;50.808;4.402;2023-10-08T05:30:14;11.02;;;2.60;;
41875;SDS011;27555;50.808;4.402;2023-10-08T05:32:43;4.37;;;2.27;;
41875;SDS011;27555;50.808;4.402;2023-10-08T05:35:27;6.28;;;2.30;;
41875;SDS011;27555;50.808;4.402;2023-10-08T05:38:17;5.43;;;2.50;;
41875;SDS011;27555;50.808;4.402;2023-10-08T05:40:48;7.47;;;3.05;;
41875;SDS011;27555;50.808;4.402;2023-10-08T05:43:27;8.77;;;3.28;;
41875;SDS011;27555;50.808;4.402;2023-10-08T05:46:20;6.00;;;2.90;;
41875;SDS011;27555;50.808;4.402;2023-10-08T05:48:46;8.32;;;2.35;;
41875;SDS011;27555;50.808;4.402;2023-10-08T05:51:31;5.03;;;2.58;;
41875;SDS011;27555;50.808;4.402;2023-10-08T05:54:14;9.40;;;2.67;;
41875;SDS011;27555;50.808;4.402;2023-10-08T05:56:52;6.13;;;2.92;;
41875;SDS011;27555;50.808;4.402;2023-10-08T06:02:27;7.07;;;2.67;;
41875;SDS011;27555;50.808;4.402;2023-10-08T06:04:58;7.70;;;2.65;;
41875;SDS011;27555;50.808;4.402;2023-10-08T06:10:24;8.48;;;3.13;;
41875;SDS011;27555;50.808;4.402;2023-10-08T06:15:44;11.18;;;3.40;;
41875;SDS011;27555;50.808;4.402;2023-10-08T06:18:30;8.77;;;2.83;;
41875;SDS011;27555;50.808;4.402;2023-10-08T06:20:58;5.45;;;2.60;;
41875;SDS011;27555;50.808;4.402;2023-10-08T06:23:34;9.48;;;3.20;;
41875;SDS011;27555;50.808;4.402;2023-10-08T06:26:01;6.95;;;2.75;;
41875;SDS011;27555;50.808;4.402;2023-10-08T06:28:41;5.03;;;2.28;;
41875;SDS011;27555;50.808;4.402;2023-10-08T06:31:09;10.23;;;2.50;;
41875;SDS011;27555;50.808;4.402;2023-10-08T06:33:41;10.77;;;2.85;;
41875;SDS011;27555;50.808;4.402;2023-10-08T06:36:07;8.20;;;2.83;;
41875;SDS011;27555;50.808;4.402;2023-10-08T06:38:36;10.10;;;2.67;;
41875;SDS011;27555;50.808;4.402;2023-10-08T06:41:04;9.82;;;3.10;;
41875;SDS011;27555;50.808;4.402;2023-10-08T06:43:34;5.72;;;3.15;;
41875;SDS011;27555;50.808;4.402;2023-10-08T06:46:02;10.43;;;2.95;;
41875;SDS011;27555;50.808;4.402;2023-10-08T06:48:28;8.05;;;2.90;;
41875;SDS011;27555;50.808;4.402;2023-10-08T06:50:55;30.65;;;4.32;;
41875;SDS011;27555;50.808;4.402;2023-10-08T06:53:32;11.90;;;3.08;;
41875;SDS011;27555;50.808;4.402;2023-10-08T06:55:58;11.00;;;2.60;;
41875;SDS011;27555;50.808;4.402;2023-10-08T06:58:28;6.65;;;3.03;;
41875;SDS011;27555;50.808;4.402;2023-10-08T07:00:57;7.90;;;2.95;;
41875;SDS011;27555;50.808;4.402;2023-10-08T07:03:23;7.95;;;2.60;;
41875;SDS011;27555;50.808;4.402;2023-10-08T07:05:50;6.38;;;2.60;;
41875;SDS011;27555;50.808;4.402;2023-10-08T07:08:23;6.28;;;2.67;;
41875;SDS011;27555;50.808;4.402;2023-10-08T07:10:50;14.93;;;3.63;;
41875;SDS011;27555;50.808;4.402;2023-10-08T07:13:21;12.98;;;3.83;;
41875;SDS011;27555;50.808;4.402;2023-10-08T07:15:48;13.02;;;3.53;;
41875;SDS011;27555;50.808;4.402;2023-10-08T07:18:15;6.57;;;2.55;;
41875;SDS011;27555;50.808;4.402;2023-10-08T07:20:47;8.20;;;3.10;;
41875;SDS011;27555;50.808;4.402;2023-10-08T07:23:18;6.40;;;3.20;;
41875;SDS011;27555;50.808;4.402;2023-10-08T07:25:55;6.30;;;2.80;;
41875;SDS011;27555;50.808;4.402;2023-10-08T07:28:39;10.93;;;3.25;;
41875;SDS011;27555;50.808;4.402;2023-10-08T07:31:15;8.50;;;2.58;;
41875;SDS011;27555;50.808;4.402;2023-10-08T07:33:42;8.10;;;3.17;;
41875;SDS011;27555;50.808;4.402;2023-10-08T07:36:10;6.38;;;2.35;;
41875;SDS011;27555;50.808;4.402;2023-10-08T07:38:45;10.27;;;3.40;;
41875;SDS011;27555;50.808;4.402;2023-10-08T07:41:12;6.80;;;2.75;;
41875;SDS011;27555;50.808;4.402;2023-10-08T07:43:40;8.30;;;3.28;;
41875;SDS011;27555;50.808;4.402;2023-10-08T07:46:09;8.95;;;2.55;;
41875;SDS011;27555;50.808;4.402;2023-10-08T07:48:35;6.05;;;2.72;;
41875;SDS011;27555;50.808;4.402;2023-10-08T07:51:07;8.27;;;3.08;;
41875;SDS011;27555;50.808;4.402;2023-10-08T07:53:33;6.47;;;3.08;;
41875;SDS011;27555;50.808;4.402;2023-10-08T07:56:07;10.65;;;3.00;;
41875;SDS011;27555;50.808;4.402;2023-10-08T07:58:34;10.10;;;2.78;;
41875;SDS011;27555;50.808;4.402;2023-10-08T08:03:31;7.13;;;3.03;;
41875;SDS011;27555;50.808;4.402;2023-10-08T08:06:01;5.93;;;2.40;;
41875;SDS011;27555;50.808;4.402;2023-10-08T08:08:31;6.82;;;3.08;;
41875;SDS011;27555;50.808;4.402;2023-10-08T08:10:58;8.20;;;3.17;;
41875;SDS011;27555;50.808;4.402;2023-10-08T08:13:43;6.15;;;2.78;;
41875;SDS011;27555;50.808;4.402;2023-10-08T08:16:13;8.10;;;3.08;;
41875;SDS011;27555;50.808;4.402;2023-10-08T08:18:49;8.43;;;2.90;;
41875;SDS011;27555;50.808;4.402;2023-10-08T08:21:22;8.80;;;3.05;;
41875;SDS011;27555;50.808;4.402;2023-10-08T08:23:48;7.47;;;3.30;;
41875;SDS011;27555;50.808;4.402;2023-10-08T08:26:19;8.85;;;2.88;;
41875;SDS011;27555;50.808;4.402;2023-10-08T08:28:58;8.65;;;2.58;;
41875;SDS011;27555;50.808;4.402;2023-10-08T08:31:26;11.20;;;2.90;;
41875;SDS011;27555;50.808;4.402;2023-10-08T08:33:56;11.25;;;3.22;;
41875;SDS011;27555;50.808;4.402;2023-10-08T08:36:25;7.50;;;3.38;;
41875;SDS011;27555;50.808;4.402;2023-10-08T08:38:52;6.70;;;3.03;;
41875;SDS011;27555;50.808;4.402;2023-10-08T08:41:18;9.13;;;2.80;;
41875;SDS011;27555;50.808;4.402;2023-10-08T08:43:49;5.03;;;2.97;;
41875;SDS011;27555;50.808;4.402;2023-10-08T08:46:32;9.98;;;3.55;;
41875;SDS011;27555;50.808;4.402;2023-10-08T08:49:06;10.00;;;2.78;;
41875;SDS011;27555;50.808;4.402;2023-10-08T08:51:36;6.97;;;2.78;;
41875;SDS011;27555;50.808;4.402;2023-10-08T08:54:03;10.13;;;3.40;;
41875;SDS011;27555;50.808;4.402;2023-10-08T08:56:37;12.95;;;3.40;;
41875;SDS011;27555;50.808;4.402;2023-10-08T08:59:06;7.35;;;3.22;;
41875;SDS011;27555;50.808;4.402;2023-10-08T09:01:41;6.20;;;3.00;;
41875;SDS011;27555;50.808;4.402;2023-10-08T09:04:07;11.18;;;3.42;;
41875;SDS011;27555;50.808;4.402;2023-10-08T09:06:36;7.43;;;3.08;;
41875;SDS011;27555;50.808;4.402;2023-10-08T09:09:05;8.07;;;3.38;;
41875;SDS011;27555;50.808;4.402;2023-10-08T09:11:51;7.97;;;3.13;;
41875;SDS011;27555;50.808;4.402;2023-10-08T09:14:20;11.80;;;3.63;;
41875;SDS011;27555;50.808;4.402;2023-10-08T09:16:47;11.55;;;3.65;;
41875;SDS011;27555;50.808;4.402;2023-10-08T09:19:14;12.23;;;3.65;;
41875;SDS011;27555;50.808;4.402;2023-10-08T09:24:36;7.68;;;3.28;;
41875;SDS011;27555;50.808;4.402;2023-10-08T09:27:03;11.88;;;3.83;;
41875;SDS011;27555;50.808;4.402;2023-10-08T09:29:29;9.63;;;3.75;;
41875;SDS011;27555;50.808;4.402;2023-10-08T09:31:56;11.13;;;3.13;;
41875;SDS011;27555;50.808;4.402;2023-10-08T09:34:29;17.45;;;3.53;;
41875;SDS011;27555;50.808;4.402;2023-10-08T09:36:56;10.63;;;3.65;;
41875;SDS011;27555;50.808;4.402;2023-10-08T09:41:54;12.82;;;3.08;;
41875;SDS011;27555;50.808;4.402;2023-10-08T09:44:23;10.57;;;3.25;;
41875;SDS011;27555;50.808;4.402;2023-10-08T09:46:53;8.82;;;3.38;;
41875;SDS011;27555;50.808;4.402;2023-10-08T09:49:37;12.02;;;4.10;;
41875;SDS011;27555;50.808;4.402;2023-10-08T09:52:06;11.20;;;3.70;;
41875;SDS011;27555;50.808;4.402;2023-10-08T09:54:40;11.07;;;3.35;;
41875;SDS011;27555;50.808;4.402;2023-10-08T09:57:08;13.50;;;3.55;;
41875;SDS011;27555;50.808;4.402;2023-10-08T09:59:35;11.88;;;3.72;;
41875;SDS011;27555;50.808;4.402;2023-10-08T10:02:03;10.25;;;4.05;;
41875;SDS011;27555;50.808;4.402;2023-10-08T10:04:30;11.85;;;3.58;;
41875;SDS011;27555;50.808;4.402;2023-10-08T10:07:07;11.77;;;4.15;;
41875;SDS011;27555;50.808;4.402;2023-10-08T10:09:37;9.95;;;2.88;;
41875;SDS011;27555;50.808;4.402;2023-10-08T10:12:07;12.23;;;4.47;;
41875;SDS011;27555;50.808;4.402;2023-10-08T10:14:43;13.32;;;3.95;;
41875;SDS011;27555;50.808;4.402;2023-10-08T10:17:14;10.07;;;3.97;;
41875;SDS011;27555;50.808;4.402;2023-10-08T10:19:49;14.00;;;3.60;;
41875;SDS011;27555;50.808;4.402;2023-10-08T10:22:31;9.65;;;3.40;;
41875;SDS011;27555;50.808;4.402;2023-10-08T10:24:59;14.18;;;3.95;;
41875;SDS011;27555;50.808;4.402;2023-10-08T10:27:29;21.50;;;4.82;;
41875;SDS011;27555;50.808;4.402;2023-10-08T10:30:04;10.75;;;3.92;;
41875;SDS011;27555;50.808;4.402;2023-10-08T10:32:34;12.30;;;4.55;;
41875;SDS011;27555;50.808;4.402;2023-10-08T10:35:00;15.43;;;4.63;;
41875;SDS011;27555;50.808;4.402;2023-10-08T10:37:30;13.27;;;4.05;;
41875;SDS011;27555;50.808;4.402;2023-10-08T10:40:06;9.45;;;4.05;;
41875;SDS011;27555;50.808;4.402;2023-10-08T10:42:37;13.07;;;4.18;;
41875;SDS011;27555;50.808;4.402;2023-10-08T10:45:12;14.35;;;4.30;;
41875;SDS011;27555;50.808;4.402;2023-10-08T10:47:59;9.70;;;3.60;;
41875;SDS011;27555;50.808;4.402;2023-10-08T10:50:37;6.97;;;2.70;;
41875;SDS011;27555;50.808;4.402;2023-10-08T10:53:25;10.85;;;3.88;;
41875;SDS011;27555;50.808;4.402;2023-10-08T10:55:52;9.63;;;4.05;;
41875;SDS011;27555;50.808;4.402;2023-10-08T10:58:51;12.45;;;4.32;;
41875;SDS011;27555;50.808;4.402;2023-10-08T11:01:22;20.70;;;4.03;;
41875;SDS011;27555;50.808;4.402;2023-10-08T11:04:09;8.38;;;3.90;;
41875;SDS011;27555;50.808;4.402;2023-10-08T11:06:40;14.02;;;4.32;;
41875;SDS011;27555;50.808;4.402;2023-10-08T11:09:09;9.10;;;3.42;;
41875;SDS011;27555;50.808;4.402;2023-10-08T11:11:40;10.20;;;4.07;;
41875;SDS011;27555;50.808;4.402;2023-10-08T11:14:10;12.75;;;4.50;;
41875;SDS011;27555;50.808;4.402;2023-10-08T11:16:43;8.48;;;3.72;;
41875;SDS011;27555;50.808;4.402;2023-10-08T11:19:10;10.82;;;3.90;;
41875;SDS011;27555;50.808;4.402;2023-10-08T11:21:51;11.20;;;3.92;;
41875;SDS011;27555;50.808;4.402;2023-10-08T11:24:30;14.82;;;4.32;;
41875;SDS011;27555;50.808;4.402;2023-10-08T11:26:58;13.85;;;3.75;;
41875;SDS011;27555;50.808;4.402;2023-10-08T11:29:41;10.93;;;4.78;;
41875;SDS011;27555;50.808;4.402;2023-10-08T11:32:11;8.20;;;3.33;;
41875;SDS011;27555;50.808;4.402;2023-10-08T11:34:38;16.58;;;3.80;;
41875;SDS011;27555;50.808;4.402;2023-10-08T11:37:07;8.15;;;4.25;;
41875;SDS011;27555;50.808;4.402;2023-10-08T11:39:44;8.40;;;3.15;;
41875;SDS011;27555;50.808;4.402;2023-10-08T11:42:11;13.10;;;3.78;;
41875;SDS011;27555;50.808;4.402;2023-10-08T11:45:00;8.07;;;3.97;;
41875;SDS011;27555;50.808;4.402;2023-10-08T11:47:43;11.70;;;4.30;;
41875;SDS011;27555;50.808;4.402;2023-10-08T11:50:10;9.30;;;3.17;;
41875;SDS011;27555;50.808;4.402;2023-10-08T11:52:42;26.67;;;4.50;;
41875;SDS011;27555;50.808;4.402;2023-10-08T11:55:08;7.85;;;3.33;;
41875;SDS011;27555;50.808;4.402;2023-10-08T11:57:35;5.97;;;2.83;;
41875;SDS011;27555;50.808;4.402;2023-10-08T12:00:04;10.88;;;3.70;;
41875;SDS011;27555;50.808;4.402;2023-10-08T12:02:44;12.50;;;4.25;;
41875;SDS011;27555;50.808;4.402;2023-10-08T12:05:10;12.52;;;3.80;;
41875;SDS011;27555;50.808;4.402;2023-10-08T12:07:44;9.15;;;3.97;;
41875;SDS011;27555;50.808;4.402;2023-10-08T12:10:13;6.63;;;3.70;;
41875;SDS011;27555;50.808;4.402;2023-10-08T12:12:42;12.90;;;4.05;;
41875;SDS011;27555;50.808;4.402;2023-10-08T12:15:10;12.85;;;4.65;;
41875;SDS011;27555;50.808;4.402;2023-10-08T12:17:37;11.10;;;4.45;;
41875;SDS011;27555;50.808;4.402;2023-10-08T12:20:07;9.43;;;3.90;;
41875;SDS011;27555;50.808;4.402;2023-10-08T12:22:48;9.25;;;3.50;;
41875;SDS011;27555;50.808;4.402;2023-10-08T12:25:14;11.50;;;4.22;;
41875;SDS011;27555;50.808;4.402;2023-10-08T12:27:40;13.38;;;5.20;;
41875;SDS011;27555;50.808;4.402;2023-10-08T12:30:06;12.02;;;4.43;;
41875;SDS011;27555;50.808;4.402;2023-10-08T12:32:35;13.20;;;4.63;;
41875;SDS011;27555;50.808;4.402;2023-10-08T12:35:05;13.88;;;4.05;;
41875;SDS011;27555;50.808;4.402;2023-10-08T12:37:37;10.05;;;5.00;;
41875;SDS011;27555;50.808;4.402;2023-10-08T12:40:04;9.85;;;3.22;;
41875;SDS011;27555;50.808;4.402;2023-10-08T12:42:37;10.65;;;4.18;;
41875;SDS011;27555;50.808;4.402;2023-10-08T12:45:09;9.00;;;4.07;;
41875;SDS011;27555;50.808;4.402;2023-10-08T12:47:38;10.65;;;3.95;;
41875;SDS011;27555;50.808;4.402;2023-10-08T12:50:04;14.60;;;4.00;;
41875;SDS011;27555;50.808;4.402;2023-10-08T12:52:32;9.63;;;4.05;;
41875;SDS011;27555;50.808;4.402;2023-10-08T12:55:00;10.35;;;4.07;;
41875;SDS011;27555;50.808;4.402;2023-10-08T12:57:31;10.35;;;4.13;;
41875;SDS011;27555;50.808;4.402;2023-10-08T13:00:00;9.35;;;3.95;;
41875;SDS011;27555;50.808;4.402;2023-10-08T13:02:28;8.40;;;3.85;;
41875;SDS011;27555;50.808;4.402;2023-10-08T13:04:54;19.73;;;5.38;;
41875;SDS011;27555;50.808;4.402;2023-10-08T13:07:20;9.57;;;3.88;;
41875;SDS011;27555;50.808;4.402;2023-10-08T13:09:47;11.48;;;4.07;;
41875;SDS011;27555;50.808;4.402;2023-10-08T13:12:13;12.48;;;4.07;;
41875;SDS011;27555;50.808;4.402;2023-10-08T13:14:41;6.75;;;3.65;;
41875;SDS011;27555;50.808;4.402;2023-10-08T13:17:09;10.43;;;3.80;;
41875;SDS011;27555;50.808;4.402;2023-10-08T13:19:36;11.13;;;4.40;;
41875;SDS011;27555;50.808;4.402;2023-10-08T13:22:02;15.13;;;4.85;;
41875;SDS011;27555;50.808;4.402;2023-10-08T13:26:57;11.18;;;3.92;;
41875;SDS011;27555;50.808;4.402;2023-10-08T13:29:24;11.45;;;4.00;;
41875;SDS011;27555;50.808;4.402;2023-10-08T13:31:52;14.90;;;4.63;;
41875;SDS011;27555;50.808;4.402;2023-10-08T13:34:19;13.30;;;4.63;;
41875;SDS011;27555;50.808;4.402;2023-10-08T13:36:46;10.13;;;3.80;;
41875;SDS011;27555;50.808;4.402;2023-10-08T13:39:14;9.85;;;4.25;;
41875;SDS011;27555;50.808;4.402;2023-10-08T13:41:43;9.85;;;4.22;;
41875;SDS011;27555;50.808;4.402;2023-10-08T13:46:38;12.05;;;4.47;;
41875;SDS011;27555;50.808;4.402;2023-10-08T13:49:08;12.68;;;4.45;;
41875;SDS011;27555;50.808;4.402;2023-10-08T13:51:35;10.45;;;4.47;;
41875;SDS011;27555;50.808;4.402;2023-10-08T13:54:03;12.43;;;5.10;;
41875;SDS011;27555;50.808;4.402;2023-10-08T13:56:32;10.73;;;5.07;;
41875;SDS011;27555;50.808;4.402;2023-10-08T13:58:58;9.57;;;3.83;;
41875;SDS011;27555;50.808;4.402;2023-10-08T14:01:37;14.65;;;4.32;;
41875;SDS011;27555;50.808;4.402;2023-10-08T14:04:05;9.30;;;4.27;;
41875;SDS011;27555;50.808;4.402;2023-10-08T14:06:33;12.35;;;5.75;;
41875;SDS011;27555;50.808;4.402;2023-10-08T14:08:59;11.52;;;4.47;;
41875;SDS011;27555;50.808;4.402;2023-10-08T14:11:26;9.48;;;4.60;;
41875;SDS011;27555;50.808;4.402;2023-10-08T14:13:58;10.73;;;4.45;;
41875;SDS011;27555;50.808;4.402;2023-10-08T14:16:27;11.70;;;4.20;;
41875;SDS011;27555;50.808;4.402;2023-10-08T14:18:57;7.10;;;3.63;;
41875;SDS011;27555;50.808;4.402;2023-10-08T14:21:24;8.57;;;3.33;;
41875;SDS011;27555;50.808;4.402;2023-10-08T14:23:58;9.45;;;3.63;;
41875;SDS011;27555;50.808;4.402;2023-10-08T14:26:28;8.98;;;4.57;;
41875;SDS011;27555;50.808;4.402;2023-10-08T14:29:03;9.35;;;3.67;;
41875;SDS011;27555;50.808;4.402;2023-10-08T14:31:42;12.50;;;4.18;;
41875;SDS011;27555;50.808;4.402;2023-10-08T14:34:13;11.95;;;4.03;;
41875;SDS011;27555;50.808;4.402;2023-10-08T14:36:43;7.50;;;3.60;;
41875;SDS011;27555;50.808;4.402;2023-10-08T14:39:28;13.98;;;4.47;;
41875;SDS011;27555;50.808;4.402;2023-10-08T14:42:12;11.43;;;3.53;;
41875;SDS011;27555;50.808;4.402;2023-10-08T14:44:56;12.90;;;4.32;;
41875;SDS011;27555;50.808;4.402;2023-10-08T14:47:22;7.35;;;3.40;;
41875;SDS011;27555;50.808;4.402;2023-10-08T14:49:48;10.15;;;4.10;;
41875;SDS011;27555;50.808;4.402;2023-10-08T14:52:13;10.25;;;4.03;;
41875;SDS011;27555;50.808;4.402;2023-10-08T14:54:39;12.18;;;3.42;;
41875;SDS011;27555;50.808;4.402;2023-10-08T14:57:06;8.30;;;3.63;;
41875;SDS011;27555;50.808;4.402;2023-10-08T14:59:32;7.97;;;3.55;;
41875;SDS011;27555;50.808;4.402;2023-10-08T15:01:58;9.00;;;3.92;;
41875;SDS011;27555;50.808;4.402;2023-10-08T15:04:24;16.08;;;3.75;;
41875;SDS011;27555;50.808;4.402;2023-10-08T15:06:53;8.48;;;3.80;;
41875;SDS011;27555;50.808;4.402;2023-10-08T15:09:21;6.60;;;3.03;;
41875;SDS011;27555;50.808;4.402;2023-10-08T15:11:50;8.82;;;3.80;;
41875;SDS011;27555;50.808;4.402;2023-10-08T15:14:19;8.32;;;3.75;;
41875;SDS011;27555;50.808;4.402;2023-10-08T15:16:46;13.00;;;3.72;;
41875;SDS011;27555;50.808;4.402;2023-10-08T15:19:17;9.07;;;3.72;;
41875;SDS011;27555;50.808;4.402;2023-10-08T15:21:47;12.57;;;3.63;;
41875;SDS011;27555;50.808;4.402;2023-10-08T15:26:51;9.23;;;3.25;;
41875;SDS011;27555;50.808;4.402;2023-10-08T15:29:20;9.80;;;3.38;;
41875;SDS011;27555;50.808;4.402;2023-10-08T15:31:50;6.95;;;3.38;;
41875;SDS011;27555;50.808;4.402;2023-10-08T15:34:17;13.07;;;4.55;;
41875;SDS011;27555;50.808;4.402;2023-10-08T15:36:42;10.45;;;3.40;;
41875;SDS011;27555;50.808;4.402;2023-10-08T15:39:08;10.77;;;3.47;;